createdAt,value
2022-08-30T00:00:11.113Z,87.77
2022-08-30T00:01:14.136Z,87.91
2022-08-30T00:02:11.065Z,87.91
2022-08-30T00:03:11.228Z,87.71
2022-08-30T00:04:10.966Z,88.01
2022-08-30T00:05:11.244Z,88.21
2022-08-30T00:06:10.961Z,88.21
2022-08-30T00:07:10.983Z,88.21
2022-08-30T00:08:10.927Z,88.21
2022-08-30T00:09:10.904Z,88.31
2022-08-30T00:10:10.907Z,88.31
2022-08-30T00:11:10.892Z,88.42
2022-08-30T00:12:11.164Z,88.42
2022-08-30T00:13:10.962Z,88.51
2022-08-30T00:14:10.869Z,88.62
2022-08-30T00:15:10.843Z,88.62
2022-08-30T00:16:11.509Z,88.62
2022-08-30T00:17:10.927Z,88.72
2022-08-30T00:18:10.889Z,88.62
2022-08-30T00:19:11.218Z,88.72
2022-08-30T00:20:10.811Z,88.82
2022-08-30T00:21:10.789Z,88.92
2022-08-30T00:22:10.822Z,88.92
2022-08-30T00:23:10.808Z,88.92
2022-08-30T00:24:10.787Z,89.02
2022-08-30T00:25:11.206Z,89.12
2022-08-30T00:26:10.846Z,89.17
2022-08-30T00:27:10.869Z,89.26
2022-08-30T00:28:10.762Z,89.17
2022-08-30T00:29:10.806Z,89.37
2022-08-30T00:30:10.805Z,89.57
2022-08-30T00:31:10.835Z,89.57
2022-08-30T00:32:10.710Z,89.57
2022-08-30T00:33:10.688Z,89.67
2022-08-30T00:34:10.704Z,89.77
2022-08-30T00:35:10.685Z,89.77
2022-08-30T00:36:10.627Z,89.87
2022-08-30T00:37:11.008Z,89.87
2022-08-30T00:38:10.647Z,89.98
2022-08-30T00:39:10.598Z,90.18
2022-08-30T00:40:10.683Z,90.32
2022-08-30T00:41:10.667Z,90.42
2022-08-30T00:42:10.597Z,90.38
2022-08-30T00:43:13.870Z,90.32
2022-08-30T00:44:10.542Z,90.32
2022-08-30T00:45:10.524Z,90.42
2022-08-30T00:46:10.638Z,90.53
2022-08-30T00:47:10.497Z,90.62
2022-08-30T00:48:10.498Z,90.73
2022-08-30T00:49:10.801Z,90.73
2022-08-30T00:50:10.485Z,90.83
2022-08-30T00:51:10.459Z,90.93
2022-08-30T00:52:10.475Z,91.03
2022-08-30T00:53:10.444Z,91.13
2022-08-30T00:54:10.449Z,91.24
2022-08-30T00:55:10.451Z,91.34
2022-08-30T00:56:10.719Z,91.34
2022-08-30T00:57:10.391Z,91.44
2022-08-30T00:58:10.400Z,91.68
2022-08-30T00:59:10.380Z,91.78
2022-08-30T01:00:10.385Z,91.78
2022-08-30T01:01:10.477Z,91.78
2022-08-30T01:02:10.433Z,91.68
2022-08-30T01:03:10.609Z,91.78
2022-08-30T01:04:10.327Z,91.78
2022-08-30T01:05:10.322Z,91.89
2022-08-30T01:06:10.315Z,92.09
2022-08-30T01:07:10.335Z,92.29
2022-08-30T01:08:10.282Z,92.29
2022-08-30T01:09:10.274Z,92.29
2022-08-30T01:10:10.576Z,92.29
2022-08-30T01:11:10.249Z,92.40
2022-08-30T01:12:10.244Z,92.40
2022-08-30T01:13:10.261Z,92.40
2022-08-30T01:14:10.216Z,92.60
2022-08-30T01:15:10.208Z,92.60
2022-08-30T01:16:10.287Z,92.64
2022-08-30T01:17:10.542Z,92.84
2022-08-30T01:18:10.211Z,92.94
2022-08-30T01:19:10.194Z,93.05
2022-08-30T01:20:10.162Z,93.05
2022-08-30T01:21:10.173Z,93.05
2022-08-30T01:22:10.162Z,93.05
2022-08-30T01:23:10.126Z,93.05
2022-08-30T01:24:10.392Z,93.05
2022-08-30T01:25:10.191Z,93.15
2022-08-30T01:26:10.117Z,93.15
2022-08-30T01:27:10.086Z,93.15
2022-08-30T01:28:10.071Z,93.25
2022-08-30T01:29:10.060Z,93.45
2022-08-30T01:30:10.060Z,93.45
2022-08-30T01:31:10.439Z,93.55
2022-08-30T01:32:10.020Z,93.55
2022-08-30T01:33:10.070Z,93.65
2022-08-30T01:34:10.002Z,93.76
2022-08-30T01:35:10.008Z,93.76
2022-08-30T01:36:09.980Z,93.80
2022-08-30T01:37:10.010Z,93.90
2022-08-30T01:38:10.240Z,94.10
2022-08-30T01:39:09.950Z,94.21
2022-08-30T01:40:09.975Z,94.31
2022-08-30T01:41:09.924Z,94.41
2022-08-30T01:42:09.917Z,94.51
2022-08-30T01:43:09.938Z,94.61
2022-08-30T01:44:09.919Z,94.61
2022-08-30T01:45:10.179Z,94.61
2022-08-30T01:46:09.919Z,94.71
2022-08-30T01:47:09.858Z,94.82
2022-08-30T01:48:09.854Z,94.82
2022-08-30T01:49:09.884Z,94.82
2022-08-30T01:50:09.858Z,94.92
2022-08-30T01:51:09.842Z,95.02
2022-08-30T01:52:10.093Z,95.02
2022-08-30T01:53:13.182Z,94.92
2022-08-30T01:54:09.799Z,94.92
2022-08-30T01:55:09.806Z,95.02
2022-08-30T01:56:09.766Z,95.02
2022-08-30T01:57:09.743Z,95.02
2022-08-30T01:58:09.756Z,95.02
2022-08-30T01:59:10.011Z,95.02
2022-08-30T02:00:09.722Z,95.02
2022-08-30T02:01:09.803Z,95.12
2022-08-30T02:02:09.713Z,95.12
2022-08-30T02:03:09.695Z,95.12
2022-08-30T02:04:09.780Z,95.26
2022-08-30T02:05:09.667Z,95.47
2022-08-30T02:06:09.943Z,95.47
2022-08-30T02:07:09.685Z,95.57
2022-08-30T02:08:09.636Z,95.57
2022-08-30T02:09:09.662Z,95.67
2022-08-30T02:10:09.627Z,95.78
2022-08-30T02:11:09.605Z,95.87
2022-08-30T02:12:09.597Z,95.87
2022-08-30T02:13:09.892Z,95.87
2022-08-30T02:14:09.606Z,95.98
2022-08-30T02:15:09.573Z,95.98
2022-08-30T02:16:09.551Z,95.98
2022-08-30T02:17:09.558Z,95.98
2022-08-30T02:18:09.538Z,96.18
2022-08-30T02:19:09.547Z,96.28
2022-08-30T02:20:09.801Z,96.38
2022-08-30T02:21:09.494Z,96.48
2022-08-30T02:22:09.522Z,96.59
2022-08-30T02:23:09.478Z,96.73
2022-08-30T02:24:09.499Z,96.73
2022-08-30T02:25:11.265Z,96.83
2022-08-30T02:26:09.452Z,96.83
2022-08-30T02:27:09.714Z,96.83
2022-08-30T02:28:09.452Z,96.94
2022-08-30T02:29:09.420Z,97.04
2022-08-30T02:30:09.404Z,97.04
2022-08-30T02:31:09.485Z,97.04
2022-08-30T02:32:09.380Z,96.94
2022-08-30T02:33:09.435Z,96.94
2022-08-30T02:34:09.656Z,96.94
2022-08-30T02:35:09.352Z,96.83
2022-08-30T02:36:09.352Z,96.94
2022-08-30T02:37:09.376Z,96.94
2022-08-30T02:38:09.328Z,96.94
2022-08-30T02:39:09.337Z,97.04
2022-08-30T02:40:09.378Z,97.04
2022-08-30T02:41:09.559Z,97.24
2022-08-30T02:42:09.284Z,97.24
2022-08-30T02:43:09.371Z,97.34
2022-08-30T02:44:09.265Z,97.55
2022-08-30T02:45:09.251Z,97.65
2022-08-30T02:46:09.306Z,97.65
2022-08-30T02:47:09.229Z,97.65
2022-08-30T02:48:09.499Z,97.65
2022-08-30T02:49:32.203Z,97.55
2022-08-30T02:50:09.197Z,97.65
2022-08-30T02:51:09.565Z,97.65
2022-08-30T02:52:09.180Z,97.65
2022-08-30T02:53:09.411Z,97.65
2022-08-30T02:54:09.154Z,97.75
2022-08-30T02:55:09.438Z,97.75
2022-08-30T02:56:09.149Z,97.89
2022-08-30T02:57:15.208Z,98.10
2022-08-30T02:58:09.110Z,98.10
2022-08-30T02:59:09.087Z,98.10
2022-08-30T03:00:09.098Z,98.10
2022-08-30T03:01:09.167Z,98.20
2022-08-30T03:02:09.335Z,98.30
2022-08-30T03:03:09.115Z,98.41
2022-08-30T03:04:09.035Z,98.41
2022-08-30T03:05:09.026Z,98.50
2022-08-30T03:06:09.016Z,98.50
2022-08-30T03:07:09.047Z,98.61
2022-08-30T03:08:09.000Z,98.71
2022-08-30T03:09:09.262Z,98.81
2022-08-30T03:10:08.985Z,98.91
2022-08-30T03:11:08.966Z,98.91
2022-08-30T03:12:08.960Z,98.91
2022-08-30T03:13:09.077Z,99.02
2022-08-30T03:14:08.952Z,99.02
2022-08-30T03:15:08.927Z,99.11
2022-08-30T03:16:09.242Z,99.22
2022-08-30T03:17:15.588Z,99.22
2022-08-30T03:18:08.907Z,99.22
2022-08-30T03:19:08.924Z,99.22
2022-08-30T03:20:08.882Z,99.22
2022-08-30T03:21:08.873Z,99.22
2022-08-30T03:22:08.850Z,99.11
2022-08-30T03:23:09.156Z,99.11
2022-08-30T03:24:08.834Z,99.11
2022-08-30T03:25:08.865Z,99.16
2022-08-30T03:26:08.813Z,99.16
2022-08-30T03:27:08.799Z,99.27
2022-08-30T03:28:08.791Z,99.37
2022-08-30T03:29:08.782Z,99.37
2022-08-30T03:30:10.051Z,99.47
2022-08-30T03:31:08.789Z,99.57
2022-08-30T03:32:08.772Z,99.67
2022-08-30T03:33:08.766Z,99.77
2022-08-30T03:34:08.726Z,99.77
2022-08-30T03:35:08.759Z,99.88
2022-08-30T03:36:08.728Z,99.88
2022-08-30T03:37:09.025Z,99.98
2022-08-30T03:38:08.688Z,99.99
2022-08-30T03:39:08.665Z,99.99
2022-08-30T03:40:08.754Z,99.99
2022-08-30T03:41:09.164Z,99.99
2022-08-30T03:42:08.652Z,99.99
2022-08-30T03:43:08.685Z,99.99
2022-08-30T03:44:08.901Z,99.99
2022-08-30T03:45:08.611Z,99.99
2022-08-30T03:46:08.687Z,99.99
2022-08-30T03:47:08.609Z,99.99
2022-08-30T03:48:08.585Z,99.99
2022-08-30T03:49:08.602Z,99.99
2022-08-30T03:50:08.557Z,99.99
2022-08-30T03:51:08.810Z,99.99
2022-08-30T03:52:08.535Z,99.99
2022-08-30T03:53:08.517Z,99.99
2022-08-30T03:54:08.517Z,99.99
2022-08-30T03:55:08.525Z,99.99
2022-08-30T03:56:08.476Z,99.99
2022-08-30T03:57:08.483Z,99.99
2022-08-30T03:58:08.479Z,99.99
2022-08-30T03:59:08.479Z,99.99
2022-08-30T04:00:08.463Z,99.99
2022-08-30T04:01:08.504Z,99.99
2022-08-30T04:02:08.507Z,99.99
2022-08-30T04:03:08.427Z,99.99
2022-08-30T04:04:08.687Z,99.99
2022-08-30T04:05:08.413Z,99.99
2022-08-30T04:06:08.381Z,99.99
2022-08-30T04:07:08.396Z,99.99
2022-08-30T04:08:08.368Z,99.99
2022-08-30T04:09:08.357Z,99.99
2022-08-30T04:10:08.333Z,99.99
2022-08-30T04:11:08.325Z,99.99
2022-08-30T04:12:08.313Z,99.99
2022-08-30T04:13:08.413Z,99.99
2022-08-30T04:14:08.297Z,99.99
2022-08-30T04:15:08.295Z,99.99
2022-08-30T04:16:08.610Z,99.99
2022-08-30T04:17:08.268Z,99.99
2022-08-30T04:18:08.289Z,99.99
2022-08-30T04:19:08.301Z,99.99
2022-08-30T04:20:08.226Z,99.99
2022-08-30T04:21:12.369Z,99.99
2022-08-30T04:22:08.245Z,99.99
2022-08-30T04:23:08.309Z,99.99
2022-08-30T04:24:08.211Z,99.99
2022-08-30T04:25:08.235Z,99.99
2022-08-30T04:26:08.165Z,99.99
2022-08-30T04:27:08.172Z,99.99
2022-08-30T04:28:08.420Z,99.99
2022-08-30T04:29:08.136Z,99.99
2022-08-30T04:30:08.124Z,99.99
2022-08-30T04:31:08.203Z,99.99
2022-08-30T04:32:08.152Z,99.99
2022-08-30T04:33:08.096Z,99.99
2022-08-30T04:34:08.070Z,99.99
2022-08-30T04:35:08.347Z,99.99
2022-08-30T04:36:08.089Z,99.99
2022-08-30T04:37:09.885Z,99.99
2022-08-30T04:38:08.065Z,99.99
2022-08-30T04:39:08.024Z,99.99
2022-08-30T04:40:08.128Z,99.99
2022-08-30T04:41:08.012Z,99.99
2022-08-30T04:42:08.287Z,99.99
2022-08-30T04:43:08.027Z,99.99
2022-08-30T04:44:07.970Z,99.99
2022-08-30T04:45:07.965Z,99.99
2022-08-30T04:46:08.011Z,99.99
2022-08-30T04:47:07.948Z,99.99
2022-08-30T04:48:07.928Z,99.99
2022-08-30T04:49:08.265Z,99.99
2022-08-30T04:50:07.906Z,99.99
2022-08-30T04:51:07.914Z,99.99
2022-08-30T04:52:07.894Z,99.99
2022-08-30T04:53:07.899Z,99.99
2022-08-30T04:54:07.863Z,99.99
2022-08-30T04:55:07.921Z,99.99
2022-08-30T04:56:08.150Z,99.99
2022-08-30T04:57:07.837Z,99.99
2022-08-30T04:58:07.870Z,99.99
2022-08-30T04:59:07.819Z,99.99
2022-08-30T05:00:07.815Z,99.99
2022-08-30T05:01:07.915Z,99.99
2022-08-30T05:02:09.009Z,99.99
2022-08-30T05:03:08.070Z,99.99
2022-08-30T05:04:07.755Z,99.99
2022-08-30T05:05:07.771Z,99.99
2022-08-30T05:06:07.730Z,99.99
2022-08-30T05:07:07.773Z,99.99
2022-08-30T05:08:07.753Z,99.99
2022-08-30T05:09:07.711Z,99.99
2022-08-30T05:10:11.369Z,99.99
2022-08-30T05:11:07.689Z,99.99
2022-08-30T05:12:07.674Z,99.99
2022-08-30T05:13:07.701Z,99.99
2022-08-30T05:14:07.664Z,99.99
2022-08-30T05:15:07.649Z,99.99
2022-08-30T05:16:07.679Z,99.99
2022-08-30T05:17:07.903Z,99.99
2022-08-30T05:18:07.607Z,99.99
2022-08-30T05:19:07.667Z,99.99
2022-08-30T05:20:07.605Z,99.99
2022-08-30T05:21:07.599Z,99.99
2022-08-30T05:22:07.568Z,99.99
2022-08-30T05:23:07.555Z,99.99
2022-08-30T05:24:07.865Z,99.99
2022-08-30T05:25:07.586Z,99.99
2022-08-30T05:26:07.520Z,99.99
2022-08-30T05:27:07.512Z,99.99
2022-08-30T05:28:07.501Z,99.99
2022-08-30T05:29:07.493Z,99.99
2022-08-30T05:30:07.477Z,99.99
2022-08-30T05:31:07.817Z,99.99
2022-08-30T05:32:07.450Z,99.99
2022-08-30T05:33:07.466Z,99.99
2022-08-30T05:34:07.445Z,99.99
2022-08-30T05:35:07.434Z,99.99
2022-08-30T05:36:07.415Z,99.99
2022-08-30T05:37:07.445Z,99.88
2022-08-30T05:38:07.669Z,99.68
2022-08-30T05:39:07.394Z,99.38
2022-08-30T05:40:10.936Z,99.13
2022-08-30T05:41:10.757Z,98.62
2022-08-30T05:42:07.347Z,97.76
2022-08-30T05:43:07.372Z,96.60
2022-08-30T05:44:07.327Z,95.43
2022-08-30T05:45:07.614Z,94.18
2022-08-30T05:46:07.317Z,93.16
2022-08-30T05:47:07.302Z,92.31
2022-08-30T05:48:07.291Z,91.46
2022-08-30T05:49:07.325Z,90.20
2022-08-30T05:50:07.270Z,88.94
2022-08-30T05:51:07.250Z,87.88
2022-08-30T05:52:07.523Z,86.98
2022-08-30T05:53:07.236Z,86.33
2022-08-30T05:54:07.221Z,85.38
2022-08-30T05:55:07.241Z,84.47
2022-08-30T05:56:07.193Z,83.72
2022-08-30T05:57:07.218Z,83.18
2022-08-30T05:58:07.171Z,82.47
2022-08-30T05:59:07.483Z,82.17
2022-08-30T06:00:07.171Z,81.73
2022-08-30T06:01:07.177Z,81.22
2022-08-30T06:02:07.192Z,81.12
2022-08-30T06:03:07.267Z,81.02
2022-08-30T06:04:07.110Z,80.58
2022-08-30T06:05:07.095Z,80.38
2022-08-30T06:06:07.383Z,80.27
2022-08-30T06:07:09.464Z,80.07
2022-08-30T06:08:07.063Z,79.97
2022-08-30T06:09:07.087Z,79.77
2022-08-30T06:10:07.055Z,79.77
2022-08-30T06:11:07.038Z,79.67
2022-08-30T06:12:07.018Z,79.53
2022-08-30T06:13:07.352Z,79.73
2022-08-30T06:14:07.006Z,79.83
2022-08-30T06:15:07.007Z,79.33
2022-08-30T06:16:07.046Z,79.13
2022-08-30T06:17:06.974Z,79.77
2022-08-30T06:18:06.962Z,79.97
2022-08-30T06:19:06.990Z,79.63
2022-08-30T06:20:07.206Z,79.67
2022-08-30T06:21:06.933Z,80.07
2022-08-30T06:22:06.947Z,80.47
2022-08-30T06:23:06.919Z,80.92
2022-08-30T06:24:06.931Z,81.08
2022-08-30T06:25:06.917Z,80.38
2022-08-30T06:26:06.875Z,79.93
2022-08-30T06:27:07.144Z,79.33
2022-08-30T06:28:06.852Z,78.99
2022-08-30T06:29:06.846Z,78.59
2022-08-30T06:30:06.842Z,78.92
2022-08-30T06:31:06.915Z,79.33
2022-08-30T06:32:06.816Z,79.77
2022-08-30T06:33:06.837Z,80.18
2022-08-30T06:34:07.054Z,79.97
2022-08-30T06:35:06.792Z,80.92
2022-08-30T06:36:06.775Z,81.22
2022-08-30T06:37:06.796Z,81.73
2022-08-30T06:38:06.786Z,82.03
2022-08-30T06:39:06.740Z,81.93
2022-08-30T06:40:06.781Z,81.93
2022-08-30T06:41:07.010Z,81.89
2022-08-30T06:42:06.707Z,81.38
2022-08-30T06:43:06.755Z,80.47
2022-08-30T06:44:06.702Z,80.58
2022-08-30T06:45:11.129Z,80.68
2022-08-30T06:46:06.707Z,80.58
2022-08-30T06:47:06.660Z,80.88
2022-08-30T06:48:06.919Z,81.12
2022-08-30T06:49:07.271Z,81.62
2022-08-30T06:50:06.646Z,81.52
2022-08-30T06:51:06.619Z,81.38
2022-08-30T06:52:06.606Z,81.08
2022-08-30T06:53:06.609Z,81.04
2022-08-30T06:54:06.581Z,80.24
2022-08-30T06:55:06.895Z,80.04
2022-08-30T06:56:06.605Z,80.04
2022-08-30T06:57:06.576Z,79.83
2022-08-30T06:58:06.554Z,79.63
2022-08-30T06:59:06.526Z,79.09
2022-08-30T07:00:06.517Z,78.99
2022-08-30T07:01:06.546Z,78.55
2022-08-30T07:02:06.871Z,77.24
2022-08-30T07:03:06.581Z,76.50
2022-08-30T07:04:06.490Z,76.64
2022-08-30T07:05:06.459Z,77.14
2022-08-30T07:06:06.455Z,77.55
2022-08-30T07:07:06.487Z,77.64
2022-08-30T07:08:06.440Z,76.94
2022-08-30T07:09:06.718Z,76.60
2022-08-30T07:10:06.442Z,75.70
2022-08-30T07:11:06.401Z,75.59
2022-08-30T07:12:06.417Z,75.90
2022-08-30T07:13:06.427Z,75.90
2022-08-30T07:14:06.414Z,76.30
2022-08-30T07:15:06.401Z,75.90
2022-08-30T07:16:06.631Z,75.29
2022-08-30T07:17:06.354Z,74.95
2022-08-30T07:18:06.323Z,74.75
2022-08-30T07:19:06.360Z,74.85
2022-08-30T07:20:06.317Z,74.55
2022-08-30T07:21:06.308Z,74.45
2022-08-30T07:22:06.321Z,74.52
2022-08-30T07:23:06.573Z,74.11
2022-08-30T07:24:08.742Z,73.07
2022-08-30T07:25:06.290Z,73.07
2022-08-30T07:26:06.258Z,72.77
2022-08-30T07:27:06.252Z,72.53
2022-08-30T07:28:06.224Z,71.60
2022-08-30T07:29:06.226Z,70.89
2022-08-30T07:30:06.691Z,70.36
2022-08-30T07:32:06.190Z,69.79
2022-08-30T07:33:06.192Z,69.79
2022-08-30T07:34:06.169Z,70.63
2022-08-30T07:35:06.189Z,70.32
2022-08-30T07:36:06.146Z,69.82
2022-08-30T07:37:06.597Z,69.72
2022-08-30T07:38:06.132Z,69.92
2022-08-30T07:39:06.142Z,70.23
2022-08-30T07:40:06.197Z,70.29
2022-08-30T07:41:06.127Z,69.46
2022-08-30T07:42:06.098Z,69.15
2022-08-30T07:43:06.101Z,69.22
2022-08-30T07:44:07.415Z,67.99
2022-08-30T07:45:06.096Z,66.48
2022-08-30T07:46:06.059Z,65.85
2022-08-30T07:47:06.059Z,65.98
2022-08-30T07:48:06.034Z,66.68
2022-08-30T07:49:11.116Z,66.88
2022-08-30T07:50:06.022Z,66.75
2022-08-30T07:51:06.403Z,65.92
2022-08-30T07:52:05.983Z,64.84
2022-08-30T07:53:08.003Z,65.45
2022-08-30T07:54:05.950Z,65.35
2022-08-30T07:55:06.014Z,65.55
2022-08-30T07:56:05.961Z,65.25
2022-08-30T07:57:05.962Z,65.55
2022-08-30T07:58:06.332Z,65.35
2022-08-30T07:59:05.935Z,64.22
2022-08-30T08:00:05.906Z,63.71
2022-08-30T08:01:05.922Z,64.18
2022-08-30T08:02:05.984Z,62.85
2022-08-30T08:03:05.998Z,62.15
2022-08-30T08:04:06.175Z,61.52
2022-08-30T08:05:05.891Z,60.82
2022-08-30T08:06:05.892Z,60.49
2022-08-30T08:07:05.890Z,60.72
2022-08-30T08:08:05.875Z,60.85
2022-08-30T08:09:05.845Z,61.65
2022-08-30T08:10:05.819Z,60.82
2022-08-30T08:11:05.824Z,60.22
2022-08-30T08:12:05.837Z,61.25
2022-08-30T08:13:05.860Z,61.58
2022-08-30T08:14:05.961Z,61.48
2022-08-30T08:15:08.737Z,61.48
2022-08-30T08:16:06.121Z,61.88
2022-08-30T08:17:05.750Z,61.58
2022-08-30T08:18:05.737Z,61.55
2022-08-30T08:19:05.773Z,60.32
2022-08-30T08:20:05.723Z,59.79
2022-08-30T08:21:05.705Z,58.97
2022-08-30T08:22:21.857Z,59.30
2022-08-30T08:23:05.699Z,59.39
2022-08-30T08:24:05.708Z,59.92
2022-08-30T08:25:05.713Z,59.59
2022-08-30T08:26:05.666Z,59.47
2022-08-30T08:27:05.664Z,58.99
2022-08-30T08:28:05.936Z,59.06
2022-08-30T08:29:05.632Z,58.64
2022-08-30T08:30:05.636Z,57.81
2022-08-30T08:31:05.663Z,57.09
2022-08-30T08:32:05.621Z,56.16
2022-08-30T08:33:05.595Z,56.16
2022-08-30T08:34:06.142Z,56.59
2022-08-30T08:35:05.897Z,56.68
2022-08-30T08:36:09.220Z,57.28
2022-08-30T08:37:05.608Z,58.73
2022-08-30T08:38:05.588Z,58.73
2022-08-30T08:39:05.547Z,58.31
2022-08-30T08:40:05.599Z,58.01
2022-08-30T08:41:05.569Z,57.98
2022-08-30T08:42:05.793Z,57.39
2022-08-30T08:43:05.542Z,57.51
2022-08-30T08:44:05.482Z,56.98
2022-08-30T08:45:10.195Z,56.91
2022-08-30T08:46:05.543Z,57.31
2022-08-30T08:47:05.470Z,56.88
2022-08-30T08:48:05.456Z,56.59
2022-08-30T08:49:05.514Z,56.18
2022-08-30T08:50:05.450Z,56.38
2022-08-30T08:51:05.421Z,56.46
2022-08-30T08:52:05.437Z,56.66
2022-08-30T08:53:05.404Z,56.03
2022-08-30T08:54:05.406Z,55.93
2022-08-30T08:55:05.693Z,55.51
2022-08-30T08:56:05.391Z,54.68
2022-08-30T08:57:05.368Z,54.49
2022-08-30T08:58:05.341Z,54.49
2022-08-30T08:59:05.346Z,54.98
2022-08-30T09:00:05.329Z,54.75
2022-08-30T09:01:06.291Z,53.94
2022-08-30T09:02:05.599Z,53.46
2022-08-30T09:03:05.300Z,53.94
2022-08-30T09:04:05.322Z,53.71
2022-08-30T09:05:05.350Z,52.72
2022-08-30T09:06:05.294Z,53.31
2022-08-30T09:07:05.301Z,52.59
2022-08-30T09:08:09.541Z,52.51
2022-08-30T09:09:05.243Z,52.62
2022-08-30T09:10:05.225Z,52.49
2022-08-30T09:11:05.223Z,52.00
2022-08-30T09:12:05.227Z,52.47
2022-08-30T09:13:05.312Z,51.67
2022-08-30T09:14:05.190Z,51.17
2022-08-30T09:15:05.184Z,50.26
2022-08-30T09:16:05.239Z,49.96
2022-08-30T09:17:05.162Z,50.18
2022-08-30T09:18:05.162Z,52.02
2022-08-30T09:19:05.207Z,52.37
2022-08-30T09:20:05.133Z,53.39
2022-08-30T09:21:05.429Z,53.52
2022-08-30T09:22:05.153Z,53.69
2022-08-30T09:23:05.105Z,53.49
2022-08-30T09:24:05.095Z,52.47
2022-08-30T09:25:05.132Z,51.84
2022-08-30T09:26:05.067Z,51.62
2022-08-30T09:27:05.064Z,51.42
2022-08-30T09:28:05.054Z,51.20
2022-08-30T09:29:05.047Z,50.18
2022-08-30T09:30:05.025Z,50.43
2022-08-30T09:31:07.757Z,51.62
2022-08-30T09:32:24.793Z,50.40
2022-08-30T09:33:05.010Z,50.58
2022-08-30T09:34:04.991Z,49.66
2022-08-30T09:35:04.988Z,49.24
2022-08-30T09:36:04.983Z,48.65
2022-08-30T09:37:05.004Z,48.72
2022-08-30T09:38:04.961Z,48.54
2022-08-30T09:39:05.250Z,49.74
2022-08-30T09:40:04.951Z,49.14
2022-08-30T09:41:04.926Z,49.26
2022-08-30T09:42:04.920Z,49.24
2022-08-30T09:43:04.938Z,48.14
2022-08-30T09:44:04.888Z,48.13
2022-08-30T09:45:04.894Z,47.90
2022-08-30T09:46:05.284Z,47.88
2022-08-30T09:47:04.879Z,46.39
2022-08-30T09:48:04.890Z,46.69
2022-08-30T09:49:05.079Z,46.07
2022-08-30T09:50:04.847Z,46.47
2022-08-30T09:51:04.843Z,46.59
2022-08-30T09:52:05.273Z,47.41
2022-08-30T09:53:05.100Z,47.90
2022-08-30T09:54:17.294Z,47.41
2022-08-30T09:55:04.813Z,47.80
2022-08-30T09:56:04.775Z,47.92
2022-08-30T09:57:04.754Z,48.44
2022-08-30T09:58:04.759Z,48.32
2022-08-30T09:59:04.743Z,47.73
2022-08-30T10:00:05.037Z,47.31
2022-08-30T10:01:04.782Z,46.59
2022-08-30T10:02:04.744Z,46.19
2022-08-30T10:03:04.718Z,45.79
2022-08-30T10:04:04.705Z,45.50
2022-08-30T10:05:04.679Z,46.51
2022-08-30T10:06:04.682Z,46.42
2022-08-30T10:07:04.701Z,46.71
2022-08-30T10:08:04.690Z,46.39
2022-08-30T10:09:04.642Z,45.79
2022-08-30T10:10:04.664Z,45.79
2022-08-30T10:11:04.647Z,46.49
2022-08-30T10:12:04.613Z,45.28
2022-08-30T10:13:04.910Z,44.29
2022-08-30T10:14:04.592Z,44.29
2022-08-30T10:15:04.601Z,44.59
2022-08-30T10:16:04.578Z,45.08
2022-08-30T10:17:04.558Z,44.78
2022-08-30T10:18:04.568Z,45.10
2022-08-30T10:19:06.305Z,46.73
2022-08-30T10:20:04.832Z,46.64
2022-08-30T10:21:04.568Z,47.03
2022-08-30T10:22:04.516Z,46.83
2022-08-30T10:23:04.552Z,46.61
2022-08-30T10:24:04.499Z,45.70
2022-08-30T10:25:04.524Z,45.32
2022-08-30T10:26:04.476Z,45.82
2022-08-30T10:27:05.267Z,46.04
2022-08-30T10:28:04.465Z,46.02
2022-08-30T10:29:04.460Z,45.42
2022-08-30T10:30:04.430Z,45.60
2022-08-30T10:31:04.455Z,44.89
2022-08-30T10:32:04.424Z,44.46
2022-08-30T10:33:04.399Z,45.53
2022-08-30T10:34:04.412Z,43.13
2022-08-30T10:35:04.414Z,42.52
2022-08-30T10:36:04.407Z,41.63
2022-08-30T10:37:04.406Z,41.33
2022-08-30T10:38:04.359Z,42.66
2022-08-30T10:39:04.345Z,42.19
2022-08-30T10:40:04.684Z,43.00
2022-08-30T10:41:04.331Z,43.93
2022-08-30T10:42:04.311Z,44.53
2022-08-30T10:43:04.340Z,44.60
2022-08-30T10:44:04.300Z,44.59
2022-08-30T10:45:04.282Z,43.95
2022-08-30T10:46:04.549Z,43.31
2022-08-30T10:47:04.264Z,41.91
2022-08-30T10:48:04.260Z,41.59
2022-08-30T10:49:04.277Z,41.30
2022-08-30T10:50:04.247Z,41.81
2022-08-30T10:51:04.229Z,43.53
2022-08-30T10:52:04.205Z,43.16
2022-08-30T10:53:04.210Z,44.09
2022-08-30T10:54:04.217Z,44.37
2022-08-30T10:55:04.223Z,44.23
2022-08-30T10:56:04.175Z,42.74
2022-08-30T10:57:04.170Z,42.13
2022-08-30T10:58:09.525Z,41.81
2022-08-30T10:59:04.163Z,41.39
2022-08-30T11:00:06.108Z,41.61
2022-08-30T11:01:04.270Z,41.30
2022-08-30T11:02:04.113Z,40.78
2022-08-30T11:03:04.113Z,40.37
2022-08-30T11:04:04.135Z,39.18
2022-08-30T11:05:04.439Z,39.20
2022-08-30T11:06:04.078Z,39.72
2022-08-30T11:07:05.919Z,40.21
2022-08-30T11:08:04.066Z,40.13
2022-08-30T11:09:04.083Z,40.66
2022-08-30T11:10:04.030Z,41.25
2022-08-30T11:11:04.038Z,41.18
2022-08-30T11:12:04.488Z,41.28
2022-08-30T11:13:04.047Z,41.97
2022-08-30T11:14:05.819Z,42.07
2022-08-30T11:15:03.993Z,41.73
2022-08-30T11:16:03.980Z,41.75
2022-08-30T11:17:03.981Z,41.75
2022-08-30T11:18:03.971Z,42.62
2022-08-30T11:19:04.384Z,41.85
2022-08-30T11:20:03.943Z,41.24
2022-08-30T11:21:03.934Z,40.94
2022-08-30T11:22:03.912Z,40.92
2022-08-30T11:23:03.905Z,40.58
2022-08-30T11:24:06.611Z,39.89
2022-08-30T11:25:09.717Z,40.31
2022-08-30T11:26:03.885Z,39.12
2022-08-30T11:27:03.904Z,39.11
2022-08-30T11:28:03.872Z,39.42
2022-08-30T11:29:03.864Z,39.52
2022-08-30T11:30:03.847Z,39.12
2022-08-30T11:31:03.854Z,39.62
2022-08-30T11:32:04.123Z,39.81
2022-08-30T11:33:05.424Z,39.62
2022-08-30T11:34:03.850Z,40.72
2022-08-30T11:35:03.842Z,40.31
2022-08-30T11:36:03.772Z,39.81
2022-08-30T11:37:03.839Z,39.72
2022-08-30T11:38:03.773Z,39.50
2022-08-30T11:39:04.078Z,39.68
2022-08-30T11:40:03.889Z,38.98
2022-08-30T11:41:03.743Z,39.28
2022-08-30T11:42:03.779Z,39.46
2022-08-30T11:43:03.743Z,39.64
2022-08-30T11:44:03.718Z,38.14
2022-08-30T11:45:03.686Z,38.02
2022-08-30T11:46:04.164Z,37.43
2022-08-30T11:47:05.181Z,38.06
2022-08-30T11:48:04.552Z,38.06
2022-08-30T11:49:03.677Z,37.95
2022-08-30T11:50:09.862Z,37.35
2022-08-30T11:51:03.650Z,36.86
2022-08-30T11:53:03.633Z,37.15
2022-08-30T11:54:03.621Z,37.49
2022-08-30T11:55:03.620Z,38.20
2022-08-30T11:56:03.580Z,38.59
2022-08-30T11:57:03.595Z,37.98
2022-08-30T11:58:03.569Z,37.66
2022-08-30T11:59:03.561Z,37.26
2022-08-30T12:00:03.569Z,37.43
2022-08-30T12:01:03.582Z,37.85
2022-08-30T12:02:03.666Z,37.74
2022-08-30T12:03:03.762Z,37.24
2022-08-30T12:04:03.512Z,37.17
2022-08-30T12:05:03.839Z,37.49
2022-08-30T12:06:03.481Z,36.88
2022-08-30T12:07:03.548Z,36.99
2022-08-30T12:08:03.460Z,37.59
2022-08-30T12:09:03.455Z,37.51
2022-08-30T12:10:03.455Z,37.82
2022-08-30T12:11:03.882Z,38.39
2022-08-30T12:12:03.466Z,37.68
2022-08-30T12:13:03.452Z,38.20
2022-08-30T12:14:03.420Z,38.49
2022-08-30T12:15:03.393Z,38.79
2022-08-30T12:16:03.514Z,37.57
2022-08-30T12:17:03.397Z,37.05
2022-08-30T12:18:03.379Z,36.86
2022-08-30T12:19:03.411Z,36.48
2022-08-30T12:20:03.368Z,38.00
2022-08-30T12:21:03.331Z,37.49
2022-08-30T12:22:03.342Z,37.68
2022-08-30T12:23:03.763Z,37.15
2022-08-30T12:24:03.790Z,36.33
2022-08-30T12:25:03.338Z,37.57
2022-08-30T12:26:03.295Z,36.84
2022-08-30T12:27:03.286Z,36.43
2022-08-30T12:28:03.256Z,35.80
2022-08-30T12:29:03.270Z,35.31
2022-08-30T12:30:04.074Z,35.82
2022-08-30T12:31:03.247Z,36.11
2022-08-30T12:32:05.459Z,35.13
2022-08-30T12:33:03.214Z,34.25
2022-08-30T12:34:03.199Z,34.64
2022-08-30T12:35:03.204Z,35.33
2022-08-30T12:36:03.211Z,35.31
2022-08-30T12:37:04.492Z,35.11
2022-08-30T12:38:03.154Z,35.23
2022-08-30T12:39:05.545Z,36.23
2022-08-30T12:40:03.249Z,35.72
2022-08-30T12:41:05.597Z,36.23
2022-08-30T12:42:03.107Z,36.65
2022-08-30T12:43:03.134Z,37.26
2022-08-30T12:44:03.466Z,37.15
2022-08-30T12:45:03.081Z,37.53
2022-08-30T12:46:07.491Z,37.45
2022-08-30T12:47:03.126Z,37.63
2022-08-30T12:48:03.074Z,36.71
2022-08-30T12:49:03.092Z,36.80
2022-08-30T12:50:03.091Z,36.43
2022-08-30T12:51:03.558Z,37.45
2022-08-30T12:52:03.029Z,37.66
2022-08-30T12:53:03.011Z,38.47
2022-08-30T12:54:02.992Z,38.20